sensor_id;sensor_type;location;lat;lon;timestamp;pressure;altitude;pressure_sealevel;temperature;humidity
64827;BME280;51265;53.972;12.286;2023-05-16T00:02:06;100321.97;;;8.86;100.00
64827;BME280;51265;53.972;12.286;2023-05-16T00:04:34;100331.56;;;8.88;100.00
64827;BME280;51265;53.972;12.286;2023-05-16T00:07:02;100327.69;;;8.89;100.00
64827;BME280;51265;53.972;12.286;2023-05-16T00:09:28;100334.09;;;9.04;100.00
64827;BME280;51265;53.972;12.286;2023-05-16T00:11:54;100332.78;;;9.20;100.00
64827;BME280;51265;53.972;12.286;2023-05-16T00:14:21;100339.53;;;9.28;100.00
64827;BME280;51265;53.972;12.286;2023-05-16T00:16:47;100328.16;;;9.34;100.00
64827;BME280;51265;53.972;12.286;2023-05-16T00:19:14;100334.94;;;9.42;100.00
64827;BME280;51265;53.972;12.286;2023-05-16T00:21:40;100334.53;;;9.48;100.00
64827;BME280;51265;53.972;12.286;2023-05-16T00:24:06;100322.81;;;9.62;100.00
64827;BME280;51265;53.972;12.286;2023-05-16T00:26:33;100332.22;;;9.75;100.00
64827;BME280;51265;53.972;12.286;2023-05-16T00:28:59;100332.63;;;9.82;100.00
64827;BME280;51265;53.972;12.286;2023-05-16T00:31:25;100328.38;;;9.89;100.00
64827;BME280;51265;53.972;12.286;2023-05-16T00:33:52;100340.31;;;9.98;100.00
64827;BME280;51265;53.972;12.286;2023-05-16T00:36:29;100327.00;;;10.06;100.00
64827;BME280;51265;53.972;12.286;2023-05-16T00:38:56;100322.63;;;10.05;100.00
64827;BME280;51265;53.972;12.286;2023-05-16T00:41:23;100320.38;;;10.07;100.00
64827;BME280;51265;53.972;12.286;2023-05-16T00:43:51;100321.19;;;10.07;100.00
64827;BME280;51265;53.972;12.286;2023-05-16T00:46:17;100334.13;;;10.07;100.00
64827;BME280;51265;53.972;12.286;2023-05-16T00:48:44;100327.53;;;10.08;100.00
64827;BME280;51265;53.972;12.286;2023-05-16T00:51:11;100325.28;;;10.10;100.00
64827;BME280;51265;53.972;12.286;2023-05-16T00:53:37;100322.84;;;10.08;100.00
64827;BME280;51265;53.972;12.286;2023-05-16T00:56:04;100320.09;;;10.08;100.00
64827;BME280;51265;53.972;12.286;2023-05-16T00:58:32;100313.78;;;10.08;100.00
64827;BME280;51265;53.972;12.286;2023-05-16T01:00:59;100324.56;;;10.04;100.00
64827;BME280;51265;53.972;12.286;2023-05-16T01:03:28;100324.34;;;10.01;100.00
64827;BME280;51265;53.972;12.286;2023-05-16T01:05:56;100316.19;;;9.95;100.00
64827;BME280;51265;53.972;12.286;2023-05-16T01:08:23;100333.78;;;9.94;100.00
64827;BME280;51265;53.972;12.286;2023-05-16T01:11:01;100319.53;;;9.92;100.00
64827;BME280;51265;53.972;12.286;2023-05-16T01:13:40;100331.13;;;9.89;100.00
64827;BME280;51265;53.972;12.286;2023-05-16T01:21:47;100341.97;;;9.67;100.00
64827;BME280;51265;53.972;12.286;2023-05-16T01:24:41;100344.50;;;9.63;100.00
64827;BME280;51265;53.972;12.286;2023-05-16T01:27:19;100347.56;;;9.62;100.00
64827;BME280;51265;53.972;12.286;2023-05-16T01:29:46;100343.78;;;9.58;100.00
64827;BME280;51265;53.972;12.286;2023-05-16T01:32:13;100344.84;;;9.57;100.00
64827;BME280;51265;53.972;12.286;2023-05-16T01:34:39;100347.59;;;9.57;100.00
64827;BME280;51265;53.972;12.286;2023-05-16T01:37:18;100355.66;;;9.53;100.00
64827;BME280;51265;53.972;12.286;2023-05-16T01:39:52;100342.09;;;9.57;100.00
64827;BME280;51265;53.972;12.286;2023-05-16T01:42:23;100337.81;;;9.51;100.00
64827;BME280;51265;53.972;12.286;2023-05-16T01:44:55;100348.81;;;9.51;100.00
64827;BME280;51265;53.972;12.286;2023-05-16T01:47:23;100352.69;;;9.50;100.00
64827;BME280;51265;53.972;12.286;2023-05-16T01:49:58;100357.16;;;9.45;100.00
64827;BME280;51265;53.972;12.286;2023-05-16T01:52:50;100351.03;;;9.48;100.00
64827;BME280;51265;53.972;12.286;2023-05-16T01:55:29;100346.16;;;9.45;100.00
64827;BME280;51265;53.972;12.286;2023-05-16T01:58:02;100351.88;;;9.49;100.00
64827;BME280;51265;53.972;12.286;2023-05-16T02:00:52;100348.59;;;9.47;100.00
64827;BME280;51265;53.972;12.286;2023-05-16T02:03:18;100347.78;;;9.46;100.00
64827;BME280;51265;53.972;12.286;2023-05-16T02:05:46;100355.50;;;9.44;100.00
64827;BME280;51265;53.972;12.286;2023-05-16T02:08:13;100352.47;;;9.46;100.00
64827;BME280;51265;53.972;12.286;2023-05-16T02:10:39;100360.47;;;9.42;100.00
64827;BME280;51265;53.972;12.286;2023-05-16T02:13:07;100360.47;;;9.42;100.00
64827;BME280;51265;53.972;12.286;2023-05-16T02:15:33;100359.66;;;9.42;100.00
64827;BME280;51265;53.972;12.286;2023-05-16T02:17:59;100354.44;;;9.40;100.00
64827;BME280;51265;53.972;12.286;2023-05-16T02:20:26;100361.88;;;9.40;100.00
64827;BME280;51265;53.972;12.286;2023-05-16T02:22:52;100357.91;;;9.32;100.00
64827;BME280;51265;53.972;12.286;2023-05-16T02:25:26;100358.47;;;9.29;100.00
64827;BME280;51265;53.972;12.286;2023-05-16T02:27:52;100372.22;;;9.29;100.00
64827;BME280;51265;53.972;12.286;2023-05-16T02:30:19;100370.88;;;9.27;100.00
64827;BME280;51265;53.972;12.286;2023-05-16T02:32:45;100379.44;;;9.25;100.00
64827;BME280;51265;53.972;12.286;2023-05-16T02:35:11;100370.66;;;9.23;100.00
64827;BME280;51265;53.972;12.286;2023-05-16T02:37:40;100372.31;;;9.24;100.00
64827;BME280;51265;53.972;12.286;2023-05-16T02:40:08;100373.69;;;9.21;100.00
64827;BME280;51265;53.972;12.286;2023-05-16T02:42:36;100391.06;;;9.17;100.00
64827;BME280;51265;53.972;12.286;2023-05-16T02:45:02;100365.53;;;9.16;100.00
64827;BME280;51265;53.972;12.286;2023-05-16T02:47:29;100377.34;;;9.17;100.00
64827;BME280;51265;53.972;12.286;2023-05-16T02:49:55;100380.59;;;9.19;100.00
64827;BME280;51265;53.972;12.286;2023-05-16T02:52:22;100382.38;;;9.10;100.00
64827;BME280;51265;53.972;12.286;2023-05-16T02:54:48;100391.50;;;9.05;100.00
64827;BME280;51265;53.972;12.286;2023-05-16T02:57:15;100386.31;;;9.04;100.00
64827;BME280;51265;53.972;12.286;2023-05-16T02:59:41;100383.31;;;9.00;100.00
64827;BME280;51265;53.972;12.286;2023-05-16T03:02:08;100372.56;;;9.04;100.00
64827;BME280;51265;53.972;12.286;2023-05-16T03:04:34;100381.69;;;8.99;100.00
64827;BME280;51265;53.972;12.286;2023-05-16T03:07:01;100373.72;;;8.97;100.00
64827;BME280;51265;53.972;12.286;2023-05-16T03:09:27;100384.22;;;8.95;100.00
64827;BME280;51265;53.972;12.286;2023-05-16T03:11:53;100383.66;;;8.93;100.00
64827;BME280;51265;53.972;12.286;2023-05-16T03:14:21;100384.22;;;8.95;100.00
64827;BME280;51265;53.972;12.286;2023-05-16T03:16:47;100378.19;;;8.93;100.00
64827;BME280;51265;53.972;12.286;2023-05-16T03:19:14;100391.16;;;8.88;100.00
64827;BME280;51265;53.972;12.286;2023-05-16T03:21:40;100379.38;;;8.87;100.00
64827;BME280;51265;53.972;12.286;2023-05-16T03:24:07;100377.72;;;8.86;100.00
64827;BME280;51265;53.972;12.286;2023-05-16T03:26:34;100383.22;;;8.86;100.00
64827;BME280;51265;53.972;12.286;2023-05-16T03:29:01;100399.72;;;8.86;100.00
64827;BME280;51265;53.972;12.286;2023-05-16T03:31:27;100390.84;;;8.89;100.00
64827;BME280;51265;53.972;12.286;2023-05-16T03:33:54;100386.47;;;8.88;100.00
64827;BME280;51265;53.972;12.286;2023-05-16T03:36:20;100400.78;;;8.85;100.00
64827;BME280;51265;53.972;12.286;2023-05-16T03:38:49;100394.22;;;8.86;100.00
64827;BME280;51265;53.972;12.286;2023-05-16T03:41:16;100396.97;;;8.86;100.00
64827;BME280;51265;53.972;12.286;2023-05-16T03:43:42;100394.78;;;8.83;100.00
64827;BME280;51265;53.972;12.286;2023-05-16T03:46:08;100401.09;;;8.84;100.00
64827;BME280;51265;53.972;12.286;2023-05-16T03:48:35;100409.63;;;8.82;100.00
64827;BME280;51265;53.972;12.286;2023-05-16T03:51:01;100404.16;;;8.82;100.00
64827;BME280;51265;53.972;12.286;2023-05-16T03:53:27;100407.97;;;8.81;100.00
64827;BME280;51265;53.972;12.286;2023-05-16T03:55:53;100402.50;;;8.81;100.00
64827;BME280;51265;53.972;12.286;2023-05-16T03:58:20;100409.63;;;8.82;100.00
64827;BME280;51265;53.972;12.286;2023-05-16T04:00:46;100406.03;;;8.82;100.00
64827;BME280;51265;53.972;12.286;2023-05-16T04:03:13;100398.66;;;8.82;100.00
64827;BME280;51265;53.972;12.286;2023-05-16T04:05:39;100410.72;;;8.81;100.00
64827;BME280;51265;53.972;12.286;2023-05-16T04:08:05;100408.34;;;8.75;100.00
64827;BME280;51265;53.972;12.286;2023-05-16T04:10:31;100411.91;;;8.75;100.00
64827;BME280;51265;53.972;12.286;2023-05-16T04:12:58;100422.94;;;8.70;100.00
64827;BME280;51265;53.972;12.286;2023-05-16T04:15:24;100419.66;;;8.68;100.00
64827;BME280;51265;53.972;12.286;2023-05-16T04:17:51;100430.06;;;8.71;100.00
64827;BME280;51265;53.972;12.286;2023-05-16T04:20:17;100423.16;;;8.73;100.00
64827;BME280;51265;53.972;12.286;2023-05-16T04:22:45;100420.16;;;8.75;100.00
64827;BME280;51265;53.972;12.286;2023-05-16T04:25:12;100428.44;;;8.70;100.00
64827;BME280;51265;53.972;12.286;2023-05-16T04:27:39;100431.69;;;8.72;100.00
64827;BME280;51265;53.972;12.286;2023-05-16T04:30:05;100434.16;;;8.73;100.00
64827;BME280;51265;53.972;12.286;2023-05-16T04:32:32;100427.84;;;8.73;100.00
64827;BME280;51265;53.972;12.286;2023-05-16T04:34:59;100436.13;;;8.68;100.00
64827;BME280;51265;53.972;12.286;2023-05-16T04:37:26;100430.41;;;8.64;100.00
64827;BME280;51265;53.972;12.286;2023-05-16T04:39:52;100434.56;;;8.62;100.00
64827;BME280;51265;53.972;12.286;2023-05-16T04:42:19;100429.59;;;8.64;100.00
64827;BME280;51265;53.972;12.286;2023-05-16T04:44:46;100428.22;;;8.66;100.00
64827;BME280;51265;53.972;12.286;2023-05-16T04:47:13;100437.31;;;8.62;100.00
64827;BME280;51265;53.972;12.286;2023-05-16T04:49:39;100431.81;;;8.62;100.00
64827;BME280;51265;53.972;12.286;2023-05-16T04:52:06;100438.94;;;8.63;100.00
64827;BME280;51265;53.972;12.286;2023-05-16T04:54:33;100439.81;;;8.58;100.00
64827;BME280;51265;53.972;12.286;2023-05-16T04:56:59;100447.25;;;8.58;100.00
64827;BME280;51265;53.972;12.286;2023-05-16T04:59:26;100459.03;;;8.58;100.00
64827;BME280;51265;53.972;12.286;2023-05-16T05:01:53;100448.88;;;8.59;100.00
64827;BME280;51265;53.972;12.286;2023-05-16T05:04:19;100460.91;;;8.63;100.00
64827;BME280;51265;53.972;12.286;2023-05-16T05:06:45;100457.03;;;8.64;100.00
64827;BME280;51265;53.972;12.286;2023-05-16T05:09:12;100470.25;;;8.62;100.00
64827;BME280;51265;53.972;12.286;2023-05-16T05:11:38;100462.28;;;8.60;100.00
64827;BME280;51265;53.972;12.286;2023-05-16T05:14:05;100454.94;;;8.56;100.00
64827;BME280;51265;53.972;12.286;2023-05-16T05:16:31;100470.81;;;8.59;100.00
64827;BME280;51265;53.972;12.286;2023-05-16T05:18:58;100466.47;;;8.53;100.00
64827;BME280;51265;53.972;12.286;2023-05-16T05:21:24;100470.88;;;8.54;100.00
64827;BME280;51265;53.972;12.286;2023-05-16T05:23:50;100467.91;;;8.50;100.00
64827;BME280;51265;53.972;12.286;2023-05-16T05:26:17;100463.78;;;8.47;100.00
64827;BME280;51265;53.972;12.286;2023-05-16T05:28:43;100466.47;;;8.53;100.00
64827;BME280;51265;53.972;12.286;2023-05-16T05:31:10;100481.81;;;8.59;100.00
64827;BME280;51265;53.972;12.286;2023-05-16T05:33:36;100464.22;;;8.60;100.00
64827;BME280;51265;53.972;12.286;2023-05-16T05:36:02;100472.41;;;8.65;100.00
64827;BME280;51265;53.972;12.286;2023-05-16T05:38:29;100465.00;;;8.65;100.00
64827;BME280;51265;53.972;12.286;2023-05-16T05:40:55;100465.22;;;8.69;100.00
64827;BME280;51265;53.972;12.286;2023-05-16T05:43:22;100460.78;;;8.73;100.00
64827;BME280;51265;53.972;12.286;2023-05-16T05:45:48;100458.59;;;8.75;100.00
64827;BME280;51265;53.972;12.286;2023-05-16T05:48:15;100451.47;;;8.74;100.00
64827;BME280;51265;53.972;12.286;2023-05-16T05:50:41;100458.59;;;8.75;100.00
64827;BME280;51265;53.972;12.286;2023-05-16T05:53:07;100456.97;;;8.74;100.00
64827;BME280;51265;53.972;12.286;2023-05-16T05:55:34;100449.22;;;8.76;100.00
64827;BME280;51265;53.972;12.286;2023-05-16T05:58:01;100458.81;;;8.79;100.00
64827;BME280;51265;53.972;12.286;2023-05-16T06:00:27;100459.41;;;8.76;100.00
64827;BME280;51265;53.972;12.286;2023-05-16T06:02:54;100458.81;;;8.79;100.00
64827;BME280;51265;53.972;12.286;2023-05-16T06:05:20;100464.06;;;8.75;100.00
64827;BME280;51265;53.972;12.286;2023-05-16T06:07:47;100466.19;;;8.83;100.00
64827;BME280;51265;53.972;12.286;2023-05-16T06:10:13;100470.56;;;8.84;100.00
64827;BME280;51265;53.972;12.286;2023-05-16T06:12:39;100477.19;;;8.83;100.00
64827;BME280;51265;53.972;12.286;2023-05-16T06:15:06;100487.69;;;8.76;100.00
64827;BME280;51265;53.972;12.286;2023-05-16T06:17:33;100484.63;;;8.78;100.00
64827;BME280;51265;53.972;12.286;2023-05-16T06:19:59;100489.78;;;8.84;100.00
64827;BME280;51265;53.972;12.286;2023-05-16T06:22:26;100483.78;;;8.82;100.00
64827;BME280;51265;53.972;12.286;2023-05-16T06:24:52;100489.56;;;8.81;100.00
64827;BME280;51265;53.972;12.286;2023-05-16T06:27:18;100494.78;;;8.82;100.00
64827;BME280;51265;53.972;12.286;2023-05-16T06:29:44;100496.91;;;8.85;100.00
64827;BME280;51265;53.972;12.286;2023-05-16T06:32:11;100500.22;;;8.87;100.00
64827;BME280;51265;53.972;12.286;2023-05-16T06:34:37;100492.47;;;8.89;100.00
64827;BME280;51265;53.972;12.286;2023-05-16T06:37:04;100489.09;;;8.97;100.00
64827;BME280;51265;53.972;12.286;2023-05-16T06:39:30;100493.38;;;9.09;100.00
64827;BME280;51265;53.972;12.286;2023-05-16T06:41:56;100489.03;;;9.03;100.00
64827;BME280;51265;53.972;12.286;2023-05-16T06:44:23;100496.19;;;9.04;100.00
64827;BME280;51265;53.972;12.286;2023-05-16T06:46:49;100498.34;;;9.07;100.00
64827;BME280;51265;53.972;12.286;2023-05-16T06:49:16;100490.63;;;9.09;100.00
64827;BME280;51265;53.972;12.286;2023-05-16T06:51:42;100490.06;;;9.12;100.00
64827;BME280;51265;53.972;12.286;2023-05-16T06:54:08;100494.03;;;9.25;100.00
64827;BME280;51265;53.972;12.286;2023-05-16T06:56:35;100495.00;;;9.34;100.00
64827;BME280;51265;53.972;12.286;2023-05-16T06:59:02;100496.88;;;9.38;100.00
64827;BME280;51265;53.972;12.286;2023-05-16T07:01:28;100499.03;;;9.41;100.00
64827;BME280;51265;53.972;12.286;2023-05-16T07:03:55;100502.31;;;9.43;100.00
64827;BME280;51265;53.972;12.286;2023-05-16T07:06:21;100493.06;;;9.34;100.00
64827;BME280;51265;53.972;12.286;2023-05-16T07:08:47;100496.47;;;9.26;100.00
64827;BME280;51265;53.972;12.286;2023-05-16T07:11:14;100504.41;;;9.28;100.00
64827;BME280;51265;53.972;12.286;2023-05-16T07:13:41;100502.09;;;9.16;100.00
64827;BME280;51265;53.972;12.286;2023-05-16T07:16:07;100507.47;;;9.26;100.00
64827;BME280;51265;53.972;12.286;2023-05-16T07:18:33;100514.66;;;9.22;100.00
64827;BME280;51265;53.972;12.286;2023-05-16T07:21:00;100525.59;;;9.27;100.00
64827;BME280;51265;53.972;12.286;2023-05-16T07:23:26;100526.75;;;9.21;100.00
64827;BME280;51265;53.972;12.286;2023-05-16T07:25:52;100521.84;;;9.18;100.00
64827;BME280;51265;53.972;12.286;2023-05-16T07:28:19;100532.31;;;9.16;100.00
64827;BME280;51265;53.972;12.286;2023-05-16T07:30:45;100544.75;;;9.08;100.00
64827;BME280;51265;53.972;12.286;2023-05-16T07:33:11;100550.50;;;9.12;100.00
64827;BME280;51265;53.972;12.286;2023-05-16T07:35:38;100550.50;;;9.12;100.00
64827;BME280;51265;53.972;12.286;2023-05-16T07:38:04;100561.25;;;9.08;100.00
64827;BME280;51265;53.972;12.286;2023-05-16T07:40:31;100554.44;;;9.01;100.00
64827;BME280;51265;53.972;12.286;2023-05-16T07:42:57;100553.88;;;9.04;100.00
64827;BME280;51265;53.972;12.286;2023-05-16T07:45:24;100561.56;;;9.02;100.00
64827;BME280;51265;53.972;12.286;2023-05-16T07:47:51;100561.94;;;8.95;100.00
64827;BME280;51265;53.972;12.286;2023-05-16T07:50:17;100554.56;;;8.90;100.00
64827;BME280;51265;53.972;12.286;2023-05-16T07:52:43;100564.13;;;8.93;100.00
64827;BME280;51265;53.972;12.286;2023-05-16T07:55:10;100563.88;;;8.89;100.00
64827;BME280;51265;53.972;12.286;2023-05-16T07:57:36;100559.47;;;8.93;100.00
64827;BME280;51265;53.972;12.286;2023-05-16T08:00:03;100571.50;;;8.97;100.00
64827;BME280;51265;53.972;12.286;2023-05-16T08:02:38;100564.44;;;8.91;100.00
64827;BME280;51265;53.972;12.286;2023-05-16T08:05:05;100560.00;;;8.95;100.00
64827;BME280;51265;53.972;12.286;2023-05-16T08:07:38;100564.31;;;9.02;100.00
64827;BME280;51265;53.972;12.286;2023-05-16T08:10:05;100563.22;;;9.03;100.00
64827;BME280;51265;53.972;12.286;2023-05-16T08:12:32;100577.09;;;9.16;100.00
64827;BME280;51265;53.972;12.286;2023-05-16T08:14:58;100566.38;;;9.15;100.00
64827;BME280;51265;53.972;12.286;2023-05-16T08:17:25;100572.94;;;9.19;100.00
64827;BME280;51265;53.972;12.286;2023-05-16T08:19:51;100577.09;;;9.16;100.00
64827;BME280;51265;53.972;12.286;2023-05-16T08:22:17;100566.16;;;9.11;100.00
64827;BME280;51265;53.972;12.286;2023-05-16T08:24:44;100579.03;;;9.16;100.00
64827;BME280;51265;53.972;12.286;2023-05-16T08:27:10;100569.09;;;9.20;100.00
64827;BME280;51265;53.972;12.286;2023-05-16T08:29:37;100581.66;;;9.26;100.00
64827;BME280;51265;53.972;12.286;2023-05-16T08:32:04;100569.13;;;9.15;100.00
64827;BME280;51265;53.972;12.286;2023-05-16T08:34:30;100572.59;;;9.26;100.00
64827;BME280;51265;53.972;12.286;2023-05-16T08:36:57;100564.06;;;9.27;100.00
64827;BME280;51265;53.972;12.286;2023-05-16T08:39:24;100571.31;;;9.42;100.00
64827;BME280;51265;53.972;12.286;2023-05-16T08:41:51;100565.84;;;9.42;100.00
64827;BME280;51265;53.972;12.286;2023-05-16T08:44:17;100568.09;;;9.59;100.00
64827;BME280;51265;53.972;12.286;2023-05-16T08:46:51;100559.38;;;9.52;100.00
64827;BME280;51265;53.972;12.286;2023-05-16T08:49:22;100569.81;;;9.55;100.00
64827;BME280;51265;53.972;12.286;2023-05-16T08:51:55;100562.78;;;9.43;100.00
64827;BME280;51265;53.972;12.286;2023-05-16T08:54:22;100565.25;;;9.45;100.00
64827;BME280;51265;53.972;12.286;2023-05-16T08:56:49;100566.41;;;9.39;100.00
64827;BME280;51265;53.972;12.286;2023-05-16T08:59:16;100582.22;;;9.28;100.00
64827;BME280;51265;53.972;12.286;2023-05-16T09:01:42;100580.72;;;9.36;100.00
64827;BME280;51265;53.972;12.286;2023-05-16T09:04:09;100591.44;;;9.37;100.00
64827;BME280;51265;53.972;12.286;2023-05-16T09:06:36;100583.72;;;9.39;100.00
64827;BME280;51265;53.972;12.286;2023-05-16T09:09:03;100592.75;;;9.45;100.00
64827;BME280;51265;53.972;12.286;2023-05-16T09:11:33;100595.69;;;9.48;100.00
64827;BME280;51265;53.972;12.286;2023-05-16T09:14:00;100581.31;;;9.57;100.00
64827;BME280;51265;53.972;12.286;2023-05-16T09:16:26;100568.16;;;9.54;99.70
64827;BME280;51265;53.972;12.286;2023-05-16T09:18:53;100577.16;;;9.59;97.54
64827;BME280;51265;53.972;12.286;2023-05-16T09:21:29;100567.94;;;9.74;95.31
64827;BME280;51265;53.972;12.286;2023-05-16T09:24:04;100574.13;;;10.04;94.03
64827;BME280;51265;53.972;12.286;2023-05-16T09:26:32;100559.19;;;10.10;92.28
64827;BME280;51265;53.972;12.286;2023-05-16T09:28:58;100547.28;;;9.95;89.87
64827;BME280;51265;53.972;12.286;2023-05-16T09:31:26;100537.91;;;9.96;89.06
64827;BME280;51265;53.972;12.286;2023-05-16T09:33:56;100537.53;;;10.03;88.08
64827;BME280;51265;53.972;12.286;2023-05-16T09:36:24;100544.28;;;10.11;87.72
64827;BME280;51265;53.972;12.286;2023-05-16T09:38:51;100546.63;;;10.41;86.67
64827;BME280;51265;53.972;12.286;2023-05-16T09:41:17;100538.44;;;10.69;85.52
64827;BME280;51265;53.972;12.286;2023-05-16T09:43:44;100514.53;;;10.83;82.72
64827;BME280;51265;53.972;12.286;2023-05-16T09:46:14;100512.63;;;10.65;80.49
64827;BME280;51265;53.972;12.286;2023-05-16T09:48:44;100497.66;;;10.71;79.08
64827;BME280;51265;53.972;12.286;2023-05-16T09:51:11;100510.78;;;11.07;79.78
64827;BME280;51265;53.972;12.286;2023-05-16T09:53:39;100491.97;;;10.81;78.40
64827;BME280;51265;53.972;12.286;2023-05-16T09:56:10;100499.09;;;10.82;78.22
64827;BME280;51265;53.972;12.286;2023-05-16T09:58:39;100504.34;;;10.97;77.56
64827;BME280;51265;53.972;12.286;2023-05-16T10:01:06;100496.06;;;10.97;77.03
64827;BME280;51265;53.972;12.286;2023-05-16T10:03:34;100512.59;;;11.11;77.21
64827;BME280;51265;53.972;12.286;2023-05-16T10:06:02;100484.34;;;11.06;76.09
64827;BME280;51265;53.972;12.286;2023-05-16T10:08:31;100516.50;;;11.24;75.85
64827;BME280;51265;53.972;12.286;2023-05-16T10:11:03;100498.13;;;11.19;75.35
64827;BME280;51265;53.972;12.286;2023-05-16T10:13:34;100508.53;;;11.36;74.70
64827;BME280;51265;53.972;12.286;2023-05-16T10:16:06;100508.94;;;11.57;74.31
64827;BME280;51265;53.972;12.286;2023-05-16T10:18:37;100500.94;;;11.69;73.93
64827;BME280;51265;53.972;12.286;2023-05-16T10:21:07;100495.44;;;11.83;72.87
64827;BME280;51265;53.972;12.286;2023-05-16T10:23:37;100499.41;;;11.77;73.26
64827;BME280;51265;53.972;12.286;2023-05-16T10:26:06;100493.19;;;11.58;73.45
64827;BME280;51265;53.972;12.286;2023-05-16T10:28:34;100531.59;;;11.95;75.97
64827;BME280;51265;53.972;12.286;2023-05-16T10:31:01;100494.72;;;11.91;72.67
64827;BME280;51265;53.972;12.286;2023-05-16T10:33:28;100500.66;;;12.07;72.62
64827;BME280;51265;53.972;12.286;2023-05-16T10:35:54;100482.03;;;11.90;71.51
64827;BME280;51265;53.972;12.286;2023-05-16T10:38:21;100497.63;;;12.09;72.37
64827;BME280;51265;53.972;12.286;2023-05-16T10:40:49;100508.00;;;12.12;71.53
64827;BME280;51265;53.972;12.286;2023-05-16T10:43:26;100493.16;;;12.44;70.98
64827;BME280;51265;53.972;12.286;2023-05-16T10:46:01;100489.84;;;12.33;70.88
64827;BME280;51265;53.972;12.286;2023-05-16T10:48:32;100473.38;;;11.83;70.65
64827;BME280;51265;53.972;12.286;2023-05-16T10:51:00;100469.38;;;11.62;70.90
64827;BME280;51265;53.972;12.286;2023-05-16T10:53:32;100494.22;;;11.62;72.27
64827;BME280;51265;53.972;12.286;2023-05-16T11:01:33;100441.41;;;12.27;67.17
64827;BME280;51265;53.972;12.286;2023-05-16T11:04:02;100462.66;;;12.27;68.31
64827;BME280;51265;53.972;12.286;2023-05-16T11:06:33;100502.22;;;12.89;69.49
64827;BME280;51265;53.972;12.286;2023-05-16T11:14:20;100474.31;;;14.78;64.48
64827;BME280;51265;53.972;12.286;2023-05-16T11:19:50;100407.06;;;13.21;62.25
64827;BME280;51265;53.972;12.286;2023-05-16T11:22:31;100407.63;;;12.30;63.50
64827;BME280;51265;53.972;12.286;2023-05-16T11:25:05;100427.22;;;12.20;64.12
64827;BME280;51265;53.972;12.286;2023-05-16T11:27:42;100431.81;;;12.56;63.65
64827;BME280;51265;53.972;12.286;2023-05-16T11:32:37;100428.91;;;13.32;62.31
64827;BME280;51265;53.972;12.286;2023-05-16T11:35:06;100422.44;;;12.96;62.70
64827;BME280;51265;53.972;12.286;2023-05-16T11:37:34;100424.47;;;12.82;60.70
64827;BME280;51265;53.972;12.286;2023-05-16T11:40:08;100459.50;;;13.44;62.22
64827;BME280;51265;53.972;12.286;2023-05-16T11:42:37;100401.16;;;12.66;60.63
64827;BME280;51265;53.972;12.286;2023-05-16T11:45:08;100419.91;;;12.46;61.71
64827;BME280;51265;53.972;12.286;2023-05-16T11:47:35;100401.22;;;12.43;60.23
64827;BME280;51265;53.972;12.286;2023-05-16T11:50:06;100398.59;;;12.16;60.92
64827;BME280;51265;53.972;12.286;2023-05-16T11:52:36;100415.81;;;12.44;61.74
64827;BME280;51265;53.972;12.286;2023-05-16T11:55:04;100407.00;;;12.33;61.06
64827;BME280;51265;53.972;12.286;2023-05-16T11:57:32;100403.63;;;12.14;61.49
64827;BME280;51265;53.972;12.286;2023-05-16T12:00:13;100402.50;;;11.92;61.30
64827;BME280;51265;53.972;12.286;2023-05-16T12:02:40;100425.91;;;12.71;60.00
64827;BME280;51265;53.972;12.286;2023-05-16T12:05:09;100444.88;;;13.52;59.32
64827;BME280;51265;53.972;12.286;2023-05-16T12:07:36;100416.06;;;13.44;57.57
64827;BME280;51265;53.972;12.286;2023-05-16T12:10:07;100402.16;;;13.18;57.74
64827;BME280;51265;53.972;12.286;2023-05-16T12:12:35;100428.47;;;13.73;57.22
64827;BME280;51265;53.972;12.286;2023-05-16T12:15:03;100418.72;;;13.67;57.43
64827;BME280;51265;53.972;12.286;2023-05-16T12:17:29;100452.84;;;14.58;58.20
64827;BME280;51265;53.972;12.286;2023-05-16T12:19:56;100418.50;;;14.24;57.79
64827;BME280;51265;53.972;12.286;2023-05-16T12:22:24;100396.34;;;13.37;58.33
64827;BME280;51265;53.972;12.286;2023-05-16T12:24:51;100408.28;;;12.98;59.55
64827;BME280;51265;53.972;12.286;2023-05-16T12:27:21;100406.16;;;13.04;59.65
64827;BME280;51265;53.972;12.286;2023-05-16T12:29:48;100416.09;;;13.62;58.99
64827;BME280;51265;53.972;12.286;2023-05-16T12:32:19;100424.19;;;14.36;58.96
64827;BME280;51265;53.972;12.286;2023-05-16T12:34:50;100438.44;;;15.20;57.77
64827;BME280;51265;53.972;12.286;2023-05-16T12:37:18;100354.25;;;14.48;54.57
64827;BME280;51265;53.972;12.286;2023-05-16T12:39:46;100354.19;;;14.65;53.65
64827;BME280;51265;53.972;12.286;2023-05-16T12:42:13;100350.72;;;14.30;53.34
64827;BME280;51265;53.972;12.286;2023-05-16T12:44:44;100371.34;;;14.59;53.37
64827;BME280;51265;53.972;12.286;2023-05-16T12:47:11;100382.66;;;14.83;54.50
64827;BME280;51265;53.972;12.286;2023-05-16T12:49:47;100353.59;;;14.60;53.56
64827;BME280;51265;53.972;12.286;2023-05-16T12:52:17;100394.03;;;15.20;53.82
64827;BME280;51265;53.972;12.286;2023-05-16T12:54:48;100380.56;;;15.10;52.95
64827;BME280;51265;53.972;12.286;2023-05-16T12:57:14;100356.38;;;14.42;53.97
64827;BME280;51265;53.972;12.286;2023-05-16T12:59:41;100354.50;;;14.08;54.29
64827;BME280;51265;53.972;12.286;2023-05-16T13:02:07;100312.91;;;13.35;53.31
64827;BME280;51265;53.972;12.286;2023-05-16T13:04:34;100334.03;;;13.83;53.24
64827;BME280;51265;53.972;12.286;2023-05-16T13:07:02;100362.59;;;14.86;52.13